createdAt,value
2019-01-17T00:03:04.591Z,99.993896
2019-01-17T00:08:36.397Z,99.993896
2019-01-17T00:13:59.557Z,99.993896
2019-01-17T00:19:31.150Z,99.993896
2019-01-17T00:24:55.764Z,99.993896
2019-01-17T00:30:18.856Z,99.993896
2019-01-17T00:35:41.713Z,99.993896
2019-01-17T00:41:15.173Z,99.993896
2019-01-17T00:46:37.967Z,99.993896
2019-01-17T00:52:09.616Z,99.993896
2019-01-17T00:57:32.503Z,99.993896
2019-01-17T01:02:59.775Z,99.993896
2019-01-17T01:08:34.616Z,99.993896
2019-01-17T01:14:00.344Z,99.993896
2019-01-17T01:19:24.818Z,99.993896
2019-01-17T01:24:51.831Z,99.993896
2019-01-17T01:30:15.338Z,99.993896
2019-01-17T01:35:40.045Z,99.993896
2019-01-17T01:41:02.995Z,99.993896
2019-01-17T01:46:29.328Z,99.993896
2019-01-17T01:51:58.799Z,99.993896
2019-01-17T01:57:23.011Z,99.993896
2019-01-17T02:02:46.075Z,99.993896
2019-01-17T02:08:09.450Z,99.993896
2019-01-17T02:13:32.491Z,99.993896
2019-01-17T02:18:55.189Z,99.993896
2019-01-17T02:24:18.836Z,99.993896
2019-01-17T02:29:53.417Z,99.993896
2019-01-17T02:35:17.305Z,99.993896
2019-01-17T02:40:40.717Z,99.993896
2019-01-17T02:46:07.330Z,99.993896
2019-01-17T02:51:30.068Z,99.993896
2019-01-17T02:56:53.462Z,99.993896
2019-01-17T03:02:16.821Z,99.993896
2019-01-17T03:07:40.086Z,99.993896
2019-01-17T03:13:04.890Z,99.993896
2019-01-17T03:18:30.304Z,99.993896
2019-01-17T03:23:53.872Z,99.993896
2019-01-17T03:29:16.510Z,99.993896
2019-01-17T03:34:40.820Z,99.993896
2019-01-17T03:40:05.883Z,99.993896
2019-01-17T03:45:32.545Z,99.993896
2019-01-17T03:50:59.331Z,99.993896
2019-01-17T03:56:23.766Z,99.993896
2019-01-17T04:01:46.558Z,99.993896
2019-01-17T04:07:09.450Z,99.993896
2019-01-17T04:12:32.286Z,99.993896
2019-01-17T04:17:55.031Z,99.993896
2019-01-17T04:23:18.432Z,99.993896
2019-01-17T04:28:41.173Z,99.993896
2019-01-17T04:34:03.891Z,99.993896
2019-01-17T04:39:28.086Z,99.993896
2019-01-17T04:44:51.446Z,99.993896
2019-01-17T04:50:15.753Z,99.993896
2019-01-17T04:55:39.076Z,99.993896
2019-01-17T05:01:01.741Z,99.993896
2019-01-17T05:06:25.355Z,99.993896
2019-01-17T05:11:48.737Z,99.993896
2019-01-17T05:17:13.320Z,99.993896
2019-01-17T05:22:38.610Z,99.993896
2019-01-17T05:28:01.311Z,99.993896
2019-01-17T05:33:25.562Z,99.993896
2019-01-17T05:38:48.285Z,99.993896
2019-01-17T05:44:10.966Z,99.993896
2019-01-17T05:49:33.669Z,99.353027
2019-01-17T05:54:56.590Z,99.664307
2019-01-17T06:00:19.444Z,99.920654
2019-01-17T06:05:42.221Z,99.993896
2019-01-17T06:11:06.326Z,99.993896
2019-01-17T06:16:29.106Z,99.993896
2019-01-17T06:21:51.795Z,99.993896
2019-01-17T06:27:14.559Z,99.993896
2019-01-17T06:32:37.347Z,99.993896
2019-01-17T06:38:00.103Z,99.993896
2019-01-17T06:43:22.836Z,99.609375
2019-01-17T06:48:45.954Z,99.713135
2019-01-17T06:54:08.654Z,99.993896
2019-01-17T06:59:31.406Z,99.755859
2019-01-17T07:04:54.088Z,99.963379
2019-01-17T07:10:17.373Z,99.44458
2019-01-17T07:15:40.300Z,98.718262
2019-01-17T07:21:03.868Z,98.718262
2019-01-17T07:26:26.910Z,98.822021
2019-01-17T07:31:51.955Z,99.34082
2019-01-17T07:37:15.592Z,98.864746
2019-01-17T07:42:38.977Z,99.328613
2019-01-17T07:48:01.681Z,99.951172
2019-01-17T07:53:27.189Z,99.993896
2019-01-17T07:58:50.789Z,99.993896
2019-01-17T08:04:15.438Z,99.432373
2019-01-17T08:09:38.347Z,99.224854
2019-01-17T08:15:02.117Z,98.913574
2019-01-17T08:20:25.592Z,98.138428
2019-01-17T08:25:53.902Z,97.369385
2019-01-17T08:31:11.107Z,95.562744
2019-01-17T08:36:33.947Z,95.410156
2019-01-17T08:41:56.639Z,95.513916
2019-01-17T08:47:20.238Z,95.410156
2019-01-17T08:52:43.085Z,94.268799
2019-01-17T08:58:07.061Z,95.410156
2019-01-17T09:03:30.357Z,95.721436
2019-01-17T09:08:54.649Z,94.744873
2019-01-17T09:14:18.141Z,94.494629
2019-01-17T09:19:41.111Z,93.933105
2019-01-17T09:25:05.622Z,92.340088
2019-01-17T09:30:29.315Z,92.340088
2019-01-17T09:35:55.291Z,90.637207
2019-01-17T09:41:17.967Z,90.637207
2019-01-17T09:46:42.061Z,90.740967
2019-01-17T09:52:04.912Z,91.156006
2019-01-17T09:57:27.745Z,91.156006
2019-01-17T10:02:52.697Z,91.259766
2019-01-17T10:08:17.324Z,92.297363
2019-01-17T10:13:40.838Z,91.674805
2019-01-17T10:19:04.183Z,91.778564
2019-01-17T10:24:28.849Z,89.398193
2019-01-17T10:29:52.943Z,91.778564
2019-01-17T10:35:16.258Z,90.228271
2019-01-17T10:40:39.129Z,91.571045
2019-01-17T10:46:01.855Z,92.956543
2019-01-17T10:51:26.255Z,92.797852
2019-01-17T10:56:49.714Z,95.074463
2019-01-17T11:02:12.385Z,94.641113
2019-01-17T11:07:35.355Z,96.600342
2019-01-17T11:12:58.762Z,98.095703
2019-01-17T11:18:24.428Z,99.224854
2019-01-17T11:23:47.270Z,99.993896
2019-01-17T11:29:10.576Z,99.993896
2019-01-17T11:34:34.713Z,99.993896
2019-01-17T11:39:58.475Z,99.993896
2019-01-17T11:45:21.268Z,99.993896
2019-01-17T11:50:44.243Z,99.993896
2019-01-17T11:56:08.026Z,99.993896
2019-01-17T12:01:30.752Z,99.993896
2019-01-17T12:06:53.518Z,99.993896
2019-01-17T12:12:15.237Z,99.993896
2019-01-17T12:17:38.645Z,99.993896
2019-01-17T12:23:01.477Z,99.993896
2019-01-17T12:28:25.742Z,99.993896
2019-01-17T12:33:48.665Z,99.993896
2019-01-17T12:39:12.261Z,99.993896
2019-01-17T12:44:34.551Z,99.993896
2019-01-17T12:49:58.192Z,99.993896
2019-01-17T12:55:21.082Z,99.993896
2019-01-17T13:00:43.916Z,99.993896
2019-01-17T13:06:06.587Z,99.993896
2019-01-17T13:11:29.871Z,99.993896
2019-01-17T13:16:53.395Z,99.993896
2019-01-17T13:22:17.115Z,99.993896
2019-01-17T13:27:40.012Z,99.993896
2019-01-17T13:33:04.267Z,99.993896
2019-01-17T13:38:27.692Z,99.993896
2019-01-17T13:43:52.240Z,99.993896
2019-01-17T13:49:14.895Z,99.993896
2019-01-17T13:54:37.643Z,99.993896
2019-01-17T14:00:01.306Z,99.993896
2019-01-17T14:05:24.077Z,99.993896
2019-01-17T14:10:46.856Z,99.993896
2019-01-17T14:16:09.693Z,99.993896
2019-01-17T14:21:32.572Z,99.993896
2019-01-17T14:26:56.304Z,99.993896
2019-01-17T14:32:19.996Z,99.993896
2019-01-17T14:37:43.236Z,99.993896
2019-01-17T14:43:05.972Z,99.993896
2019-01-17T14:48:28.772Z,99.993896
2019-01-17T14:53:53.041Z,99.591064
2019-01-17T14:59:17.838Z,99.993896
2019-01-17T15:04:41.281Z,99.224854
2019-01-17T15:10:15.714Z,99.578857
2019-01-17T15:15:39.755Z,99.993896
2019-01-17T15:21:03.409Z,99.993896
2019-01-17T15:26:26.209Z,99.993896
2019-01-17T15:31:49.944Z,99.993896
2019-01-17T15:37:12.898Z,99.993896
2019-01-17T15:42:37.643Z,99.993896
2019-01-17T15:48:01.571Z,99.993896
2019-01-17T15:53:27.352Z,99.993896
2019-01-17T15:58:52.760Z,99.993896
2019-01-17T16:04:15.668Z,99.993896
2019-01-17T16:09:39.467Z,99.993896
2019-01-17T16:15:02.742Z,99.993896
2019-01-17T16:20:25.697Z,99.993896
2019-01-17T16:25:48.516Z,99.993896
2019-01-17T16:31:11.371Z,99.993896
2019-01-17T16:36:34.995Z,99.993896
2019-01-17T16:41:57.918Z,99.993896
2019-01-17T16:47:21.661Z,99.993896
2019-01-17T16:52:45.435Z,99.993896
2019-01-17T16:58:08.247Z,99.993896
2019-01-17T17:03:32.964Z,99.993896
2019-01-17T17:08:56.049Z,99.993896
2019-01-17T17:14:18.991Z,99.993896
2019-01-17T17:19:42.267Z,99.993896
2019-01-17T17:25:05.268Z,99.993896
2019-01-17T17:30:28.154Z,99.993896
2019-01-17T17:35:51.173Z,99.993896
2019-01-17T17:41:14.315Z,99.993896
2019-01-17T17:46:37.372Z,99.993896
2019-01-17T17:52:00.244Z,99.993896
2019-01-17T17:57:22.941Z,99.993896
2019-01-17T18:02:48.193Z,99.993896
2019-01-17T18:08:11.079Z,99.993896
2019-01-17T18:13:37.232Z,99.993896
2019-01-17T18:19:01.190Z,99.993896
2019-01-17T18:24:24.082Z,99.993896
2019-01-17T18:29:46.762Z,99.993896
2019-01-17T18:35:09.482Z,99.993896
2019-01-17T18:40:35.003Z,99.993896
2019-01-17T18:45:58.973Z,99.993896
2019-01-17T18:51:23.248Z,99.993896
2019-01-17T18:56:47.632Z,99.993896
2019-01-17T19:02:10.376Z,99.993896
2019-01-17T19:07:37.228Z,99.993896
2019-01-17T19:12:59.973Z,99.993896
2019-01-17T19:18:24.126Z,99.993896
2019-01-17T19:23:48.144Z,99.993896
2019-01-17T19:29:11.038Z,99.993896
2019-01-17T19:34:34.153Z,99.993896
2019-01-17T19:39:57.982Z,99.993896
2019-01-17T19:45:20.765Z,99.993896
2019-01-17T19:50:44.333Z,99.993896
2019-01-17T19:56:07.222Z,99.993896
2019-01-17T20:01:30.985Z,99.993896
2019-01-17T20:06:53.937Z,99.993896
2019-01-17T20:12:25.515Z,99.993896
2019-01-17T20:17:48.779Z,99.993896
2019-01-17T20:23:12.616Z,99.993896
2019-01-17T20:28:35.893Z,99.993896
2019-01-17T20:33:59.235Z,99.993896
2019-01-17T20:39:22.112Z,99.993896
2019-01-17T20:44:45.866Z,99.993896
2019-01-17T20:50:08.996Z,99.993896
2019-01-17T20:55:31.916Z,99.993896
2019-01-17T21:00:55.872Z,99.993896
2019-01-17T21:06:18.989Z,99.993896
2019-01-17T21:11:42.949Z,99.993896
2019-01-17T21:17:07.040Z,99.993896
2019-01-17T21:22:30.060Z,99.993896
2019-01-17T21:27:53.255Z,99.993896
2019-01-17T21:33:16.037Z,99.993896
2019-01-17T21:38:38.793Z,99.993896
2019-01-17T21:44:03.850Z,99.993896
2019-01-17T21:49:29.251Z,99.993896
2019-01-17T21:54:55.373Z,99.993896
2019-01-17T22:00:23.735Z,99.993896
2019-01-17T22:05:46.830Z,99.993896
2019-01-17T22:11:10.449Z,99.993896
2019-01-17T22:16:34.384Z,99.993896
2019-01-17T22:21:57.212Z,99.993896
2019-01-17T22:27:23.720Z,99.993896
2019-01-17T22:32:49.242Z,99.993896
2019-01-17T22:38:14.546Z,99.993896
2019-01-17T22:43:37.369Z,99.993896
2019-01-17T22:49:00.815Z,99.993896
2019-01-17T22:54:25.427Z,99.993896
2019-01-17T22:59:50.054Z,99.993896
2019-01-17T23:05:14.072Z,99.993896
2019-01-17T23:10:37.738Z,99.993896
2019-01-17T23:16:01.723Z,99.993896
2019-01-17T23:21:25.455Z,99.993896
2019-01-17T23:26:48.274Z,99.993896
2019-01-17T23:32:11.594Z,99.993896
2019-01-17T23:37:37.481Z,99.993896
2019-01-17T23:43:01.846Z,99.993896
2019-01-17T23:48:27.244Z,99.993896
2019-01-17T23:53:51.662Z,99.993896
2019-01-17T23:59:14.399Z,99.993896
